logo
Search for airport 
image banner adimage banner adimage banner ad
image banner ad

SCDA - Diego Aracena

Located in Iquique, Chile

ICAO - SCDA, IATA - IQQ

Data provided by Airmate  

General information

Coordinates: S20°32'7" W70°10'53"
Elevation is 156 feet MSL.
Magnetic variation is -5° East
View others Airports in Tarapacá

Operational data

Special qualification required
Current time UTC:
Current local time:
Weather
METAR: SCDA 301800Z 29007KT 9999 SCT026 17/11 Q1015
TAF: TAF COR SCDA 301636Z 3018/3118 21012KT 9999 FEW025 TX19/3018Z TN16/3110Z BECMG 3021/3023 21004KT OVC020 BECMG 3115/3117 21012KT FEW025
View NOTAMs / SUP AIP / TFR affecting this airport [VIEW]
Communications frequencies: [VIEW]

Runways:

RWY identifierQFULength (ft)Width (ft)SurfaceLDA (ft)
0110991148ASPH10991
19182°10991148ASPH10991

Airport contact information

Address: Iquique Chile

Other aviation service providers

Aviation club (not for profit)

Club Aéreo Iquique

Club Aéreo Iquique
ezufic@zufic.cl+56991499679
+56991499679

Satellite view of SCDA